createdAt,value
2019-05-23T00:00:06.248Z,17.02
2019-05-23T00:02:57.462Z,14.75
2019-05-23T00:05:49.190Z,15.28
2019-05-23T00:08:40.394Z,14.47
2019-05-23T00:11:29.669Z,14.85
2019-05-23T00:14:25.678Z,13.98
2019-05-23T00:16:58.255Z,15.70
2019-05-23T00:19:30.285Z,14.43
2019-05-23T00:22:04.147Z,15.72
2019-05-23T00:24:37.653Z,14.58
2019-05-23T00:27:09.966Z,13.75
2019-05-23T00:29:45.670Z,13.53
2019-05-23T00:32:19.879Z,12.30
2019-05-23T00:35:02.390Z,15.53
2019-05-23T00:37:35.403Z,18.45
2019-05-23T00:40:33.923Z,17.07
2019-05-23T00:43:07.488Z,15.95
2019-05-23T00:45:39.411Z,16.02
2019-05-23T00:48:12.610Z,13.65
2019-05-23T00:50:44.793Z,16.30
2019-05-23T00:53:17.569Z,15.35
2019-05-23T00:55:49.534Z,13.80
2019-05-23T00:58:21.807Z,16.12
2019-05-23T01:00:54.131Z,19.20
2019-05-23T01:04:20.213Z,17.20
2019-05-23T01:08:21.864Z,12.85
2019-05-23T01:12:23.234Z,14.75
2019-05-23T01:16:25.105Z,13.62
2019-05-23T01:20:26.253Z,16.37
2019-05-23T01:23:17.673Z,14.68
2019-05-23T01:25:50.148Z,16.60
2019-05-23T01:28:22.111Z,16.05
2019-05-23T01:31:08.213Z,16.37
2019-05-23T01:34:00.527Z,16.00
2019-05-23T01:36:33.409Z,21.30
2019-05-23T01:39:09.734Z,23.02
2019-05-23T01:41:42.668Z,22.98
2019-05-23T01:44:16.076Z,21.90
2019-05-23T01:46:49.717Z,24.27
2019-05-23T01:49:22.573Z,23.18
2019-05-23T01:51:55.034Z,23.45
2019-05-23T01:54:28.147Z,23.20
2019-05-23T01:57:00.603Z,21.17
2019-05-23T01:59:32.993Z,23.38
2019-05-23T02:02:05.361Z,26.48
2019-05-23T02:04:37.370Z,23.83
2019-05-23T02:07:10.913Z,20.97
2019-05-23T02:09:43.484Z,28.75
2019-05-23T02:12:16.071Z,27.93
2019-05-23T02:14:48.832Z,28.30
2019-05-23T02:17:21.966Z,31.75
2019-05-23T02:19:54.387Z,33.05
2019-05-23T02:22:26.373Z,29.87
2019-05-23T02:24:59.810Z,32.55
2019-05-23T02:27:32.156Z,31.42
2019-05-23T02:30:06.153Z,30.40
2019-05-23T02:32:38.012Z,31.62
2019-05-23T02:35:12.126Z,30.23
2019-05-23T02:37:51.670Z,31.48
2019-05-23T02:40:25.882Z,26.23
2019-05-23T02:43:09.812Z,27.85
2019-05-23T02:45:45.873Z,27.98
2019-05-23T02:48:23.074Z,26.93
2019-05-23T02:51:16.951Z,27.70
2019-05-23T02:53:51.983Z,24.75
2019-05-23T02:56:25.619Z,26.20
2019-05-23T02:59:23.786Z,27.52
2019-05-23T03:02:16.516Z,27.55
2019-05-23T03:04:50.483Z,30.82
2019-05-23T03:07:25.076Z,29.87
2019-05-23T03:09:56.695Z,29.50
2019-05-23T03:12:31.626Z,34.25
2019-05-23T03:15:04.224Z,39.33
2019-05-23T03:17:38.825Z,32.45
2019-05-23T03:20:10.584Z,35.45
2019-05-23T03:22:47.273Z,32.30
2019-05-23T03:25:38.489Z,33.05
2019-05-23T03:28:14.119Z,36.40
2019-05-23T03:30:48.103Z,32.28
2019-05-23T03:33:21.691Z,34.58
2019-05-23T03:35:58.505Z,36.53
2019-05-23T03:38:31.122Z,30.75
2019-05-23T03:41:03.806Z,30.32
2019-05-23T03:43:36.815Z,33.40
2019-05-23T03:46:10.159Z,30.77
2019-05-23T03:48:42.734Z,33.50
2019-05-23T03:51:14.759Z,34.15
2019-05-23T03:53:47.411Z,32.48
2019-05-23T03:56:20.774Z,34.23
2019-05-23T03:58:54.577Z,33.67
2019-05-23T04:01:46.070Z,33.78
2019-05-23T04:04:03.789Z,38.73
2019-05-23T04:06:37.420Z,37.35
2019-05-23T04:09:10.945Z,33.88
2019-05-23T04:11:43.409Z,30.10
2019-05-23T04:14:16.190Z,28.55
2019-05-23T04:16:48.121Z,31.75
2019-05-23T04:19:19.834Z,31.15
2019-05-23T04:21:52.198Z,28.32
2019-05-23T04:24:24.548Z,30.02
2019-05-23T04:26:56.678Z,27.22
2019-05-23T04:29:29.079Z,27.07
2019-05-23T04:32:07.627Z,30.52
2019-05-23T04:34:35.941Z,25.23
2019-05-23T04:37:07.818Z,29.60
2019-05-23T04:39:40.947Z,30.10
2019-05-23T04:42:12.873Z,24.85
2019-05-23T04:44:44.991Z,25.23
2019-05-23T04:47:16.897Z,25.40
2019-05-23T04:49:49.699Z,26.97
2019-05-23T04:52:22.277Z,19.90
2019-05-23T04:54:55.775Z,21.52
2019-05-23T04:57:29.684Z,17.48
2019-05-23T05:00:02.188Z,16.67
2019-05-23T05:02:34.018Z,20.43
2019-05-23T05:05:08.133Z,18.65
2019-05-23T05:07:41.528Z,17.73
2019-05-23T05:10:15.725Z,16.15
2019-05-23T05:12:48.007Z,16.32
2019-05-23T05:15:19.969Z,13.68
2019-05-23T05:17:51.622Z,15.48
2019-05-23T05:20:23.710Z,13.75
2019-05-23T05:22:55.861Z,12.20
2019-05-23T05:25:29.772Z,11.60
2019-05-23T05:28:01.513Z,10.80
2019-05-23T05:30:33.704Z,9.58
2019-05-23T05:33:05.563Z,11.28
2019-05-23T05:35:37.833Z,9.70
2019-05-23T05:38:09.770Z,8.38
2019-05-23T05:40:41.835Z,7.70
2019-05-23T05:43:14.500Z,7.37
2019-05-23T05:45:46.292Z,7.65
2019-05-23T05:48:18.513Z,8.00
2019-05-23T05:50:51.887Z,7.60
2019-05-23T05:53:24.236Z,7.72
2019-05-23T05:55:56.300Z,8.03
2019-05-23T05:58:28.159Z,7.42
2019-05-23T06:01:02.482Z,9.80
2019-05-23T06:06:23.178Z,10.10
2019-05-23T06:08:56.490Z,8.15
2019-05-23T06:11:29.149Z,12.18
2019-05-23T06:14:01.327Z,9.25
2019-05-23T06:16:34.829Z,8.05
2019-05-23T06:19:08.334Z,9.23
2019-05-23T06:21:41.930Z,7.75
2019-05-23T06:24:14.001Z,8.53
2019-05-23T06:26:46.553Z,6.15
2019-05-23T06:29:18.316Z,7.42
2019-05-23T06:31:50.820Z,6.78
2019-05-23T06:34:23.175Z,6.55
2019-05-23T06:36:55.382Z,5.80
2019-05-23T06:39:27.208Z,6.08
2019-05-23T06:41:58.952Z,7.50
2019-05-23T06:44:31.900Z,5.90
2019-05-23T06:47:03.492Z,6.30
2019-05-23T06:49:35.572Z,6.08
2019-05-23T06:52:07.744Z,6.33
2019-05-23T06:54:41.340Z,5.92
2019-05-23T06:57:15.185Z,8.90
2019-05-23T06:59:47.278Z,5.65
2019-05-23T07:02:19.891Z,6.08
2019-05-23T07:04:51.737Z,5.75
2019-05-23T07:07:23.814Z,5.42
2019-05-23T07:09:56.399Z,5.12
2019-05-23T07:12:28.445Z,3.90
2019-05-23T07:15:00.373Z,4.17
2019-05-23T07:17:33.513Z,4.53
2019-05-23T07:20:10.328Z,6.45
2019-05-23T07:22:41.922Z,6.05
2019-05-23T07:25:14.493Z,6.92
2019-05-23T07:27:46.569Z,7.53
2019-05-23T07:30:23.877Z,6.80
2019-05-23T07:32:56.328Z,7.72
2019-05-23T07:35:28.186Z,7.22
2019-05-23T07:37:59.948Z,7.85
2019-05-23T07:40:31.514Z,6.25
2019-05-23T07:43:04.293Z,5.20
2019-05-23T07:45:50.587Z,5.40
2019-05-23T07:48:22.780Z,7.35
2019-05-23T07:50:54.610Z,5.45
2019-05-23T07:53:34.929Z,6.35
2019-05-23T07:56:08.997Z,6.90
2019-05-23T07:58:41.372Z,6.33
2019-05-23T08:01:14.714Z,7.72
2019-05-23T08:03:49.087Z,7.72
2019-05-23T08:06:21.641Z,5.62
2019-05-23T08:08:53.826Z,6.12
2019-05-23T08:11:26.302Z,5.30
2019-05-23T08:13:59.177Z,5.05
2019-05-23T08:16:31.200Z,6.78
2019-05-23T08:19:03.155Z,5.10
2019-05-23T08:21:35.102Z,5.05
2019-05-23T08:24:07.663Z,6.28
2019-05-23T08:26:39.317Z,5.25
2019-05-23T08:29:25.348Z,5.95
2019-05-23T08:31:45.898Z,5.10
2019-05-23T08:34:18.030Z,5.17
2019-05-23T08:36:50.190Z,5.80
2019-05-23T08:39:22.363Z,5.35
2019-05-23T08:41:54.157Z,6.33
2019-05-23T08:44:25.825Z,4.97
2019-05-23T08:46:58.202Z,5.45
2019-05-23T08:49:30.457Z,4.12
2019-05-23T08:52:02.524Z,5.47
2019-05-23T08:54:35.131Z,5.67
2019-05-23T08:57:07.200Z,5.62
2019-05-23T08:59:38.815Z,4.58
2019-05-23T09:02:12.513Z,7.15
2019-05-23T09:05:02.437Z,5.53
2019-05-23T09:07:17.881Z,9.83
2019-05-23T09:09:49.605Z,6.55
2019-05-23T09:12:22.526Z,7.15
2019-05-23T09:14:54.852Z,5.50
2019-05-23T09:17:27.677Z,5.83
2019-05-23T09:19:59.214Z,5.00
2019-05-23T09:22:31.091Z,4.35
2019-05-23T09:25:02.850Z,5.15
2019-05-23T09:27:36.040Z,5.45
2019-05-23T09:30:09.645Z,5.00
2019-05-23T09:32:42.205Z,5.58
2019-05-23T09:35:21.008Z,7.17
2019-05-23T09:37:50.653Z,8.13
2019-05-23T09:40:22.655Z,6.45
2019-05-23T09:42:54.388Z,5.05
2019-05-23T09:45:26.542Z,7.33
2019-05-23T09:47:58.621Z,4.72
2019-05-23T09:50:31.393Z,4.42
2019-05-23T09:53:03.756Z,5.00
2019-05-23T09:55:36.129Z,5.42
2019-05-23T09:58:08.080Z,5.85
2019-05-23T10:00:40.678Z,4.50
2019-05-23T10:03:13.047Z,3.92
2019-05-23T10:05:45.015Z,5.62
2019-05-23T10:08:17.675Z,4.87
2019-05-23T10:13:37.817Z,6.33
2019-05-23T10:15:59.504Z,5.33
2019-05-23T10:18:31.626Z,5.70
2019-05-23T10:21:03.946Z,5.60
2019-05-23T10:23:37.826Z,4.72
2019-05-23T10:26:11.578Z,5.25
2019-05-23T10:28:43.590Z,4.60
2019-05-23T10:31:15.806Z,5.58
2019-05-23T10:33:47.980Z,4.33
2019-05-23T10:36:20.244Z,4.72
2019-05-23T10:38:52.517Z,4.92
2019-05-23T10:41:24.551Z,4.92
2019-05-23T10:43:58.109Z,6.22
2019-05-23T10:46:49.562Z,4.85
2019-05-23T10:49:21.506Z,5.80
2019-05-23T10:51:53.559Z,6.15
2019-05-23T10:54:25.904Z,6.85
2019-05-23T10:56:58.677Z,6.00
2019-05-23T10:59:49.273Z,7.62
2019-05-23T11:02:21.372Z,7.92
2019-05-23T11:04:53.958Z,7.83
2019-05-23T11:07:26.733Z,7.83
2019-05-23T11:09:58.378Z,8.50
2019-05-23T11:12:30.145Z,7.33
2019-05-23T11:15:02.319Z,8.20
2019-05-23T11:17:34.242Z,8.78
2019-05-23T11:20:11.210Z,8.43
2019-05-23T11:22:42.846Z,7.17
2019-05-23T11:25:17.521Z,8.78
2019-05-23T11:27:49.436Z,7.35
2019-05-23T11:30:31.888Z,7.47
2019-05-23T11:33:04.282Z,7.95
2019-05-23T11:35:36.330Z,7.40
2019-05-23T11:38:08.185Z,7.25
2019-05-23T11:40:40.766Z,9.38
2019-05-23T11:43:13.017Z,7.75
2019-05-23T11:45:46.587Z,6.97
2019-05-23T11:48:18.854Z,7.37
2019-05-23T11:50:50.749Z,8.00
2019-05-23T11:53:22.628Z,6.87
2019-05-23T11:55:54.826Z,7.33
2019-05-23T11:58:26.859Z,7.12
2019-05-23T12:01:03.122Z,7.50
2019-05-23T12:03:35.306Z,10.20
2019-05-23T12:06:07.525Z,7.28
2019-05-23T12:08:39.761Z,8.45
2019-05-23T12:11:13.276Z,8.98
2019-05-23T12:13:45.074Z,11.85
2019-05-23T12:16:17.141Z,9.05
2019-05-23T12:18:49.246Z,6.37
2019-05-23T12:21:21.069Z,5.87
2019-05-23T12:23:52.735Z,6.60
2019-05-23T12:26:24.695Z,8.03
2019-05-23T12:28:56.747Z,8.15
2019-05-23T12:31:28.405Z,6.85
2019-05-23T12:34:00.065Z,6.33
2019-05-23T12:36:31.931Z,7.50
2019-05-23T12:39:05.499Z,7.70
2019-05-23T12:41:37.783Z,7.28
2019-05-23T12:44:09.954Z,7.70
2019-05-23T12:46:41.837Z,6.97
2019-05-23T12:49:15.233Z,6.85
2019-05-23T12:51:47.788Z,7.80
2019-05-23T12:54:20.190Z,6.03
2019-05-23T12:56:52.397Z,7.22
2019-05-23T12:59:24.513Z,7.12
2019-05-23T13:01:57.489Z,6.80
2019-05-23T13:04:29.363Z,6.92
2019-05-23T13:07:01.712Z,6.20
2019-05-23T13:09:33.600Z,7.95
2019-05-23T13:12:05.976Z,7.10
2019-05-23T13:14:38.011Z,7.65
2019-05-23T13:17:09.770Z,7.22
2019-05-23T13:19:42.063Z,6.45
2019-05-23T13:22:14.675Z,6.40
2019-05-23T13:24:52.719Z,8.13
2019-05-23T13:27:20.301Z,7.33
2019-05-23T13:29:52.065Z,7.45
2019-05-23T13:32:24.294Z,8.50
2019-05-23T13:34:56.196Z,8.95
2019-05-23T13:37:27.736Z,8.48
2019-05-23T13:39:59.820Z,10.70
2019-05-23T13:42:31.758Z,8.60
2019-05-23T13:45:05.114Z,9.00
2019-05-23T13:47:37.116Z,11.38
2019-05-23T13:50:09.450Z,10.15
2019-05-23T13:52:41.769Z,8.50
2019-05-23T13:55:13.413Z,9.38
2019-05-23T13:57:49.364Z,12.50
2019-05-23T14:00:24.623Z,11.45
2019-05-23T14:02:58.760Z,14.85
2019-05-23T14:05:32.711Z,13.40
2019-05-23T14:08:12.532Z,14.07
2019-05-23T14:10:38.825Z,10.88
2019-05-23T14:13:10.683Z,11.68
2019-05-23T14:15:51.665Z,10.38
2019-05-23T14:18:25.569Z,11.08
2019-05-23T14:20:57.737Z,13.68
2019-05-23T14:23:31.258Z,14.65
2019-05-23T14:26:04.897Z,10.82
2019-05-23T14:28:37.803Z,12.82
2019-05-23T14:31:14.783Z,12.68
2019-05-23T14:33:49.204Z,11.63
2019-05-23T14:36:36.236Z,12.40
2019-05-23T14:39:14.998Z,11.05
2019-05-23T14:41:49.309Z,11.53
2019-05-23T14:44:22.473Z,10.10
2019-05-23T14:47:13.154Z,12.28
2019-05-23T14:50:03.884Z,12.40
2019-05-23T14:52:41.577Z,13.80
2019-05-23T14:55:15.570Z,14.43
2019-05-23T14:57:48.571Z,14.95
2019-05-23T15:00:23.094Z,13.00
2019-05-23T15:02:56.322Z,10.63
2019-05-23T15:05:29.267Z,11.38
2019-05-23T15:08:02.163Z,10.35
2019-05-23T15:10:34.936Z,11.25
2019-05-23T15:13:07.827Z,10.03
2019-05-23T15:15:40.685Z,11.48
2019-05-23T15:20:45.122Z,10.82
2019-05-23T15:23:18.235Z,12.28
2019-05-23T15:25:52.424Z,11.38
2019-05-23T15:28:26.051Z,9.18
2019-05-23T15:30:59.751Z,11.40
2019-05-23T15:33:32.741Z,9.88
2019-05-23T15:36:06.148Z,9.35
2019-05-23T15:38:38.713Z,8.85
2019-05-23T15:41:11.599Z,10.63
2019-05-23T15:43:44.785Z,8.75
2019-05-23T15:46:17.473Z,9.03
2019-05-23T15:51:24.555Z,9.98
2019-05-23T15:53:58.908Z,9.53
2019-05-23T15:56:36.177Z,8.95
2019-05-23T15:59:23.601Z,10.13
2019-05-23T16:01:57.910Z,10.58
2019-05-23T16:04:31.547Z,9.73
2019-05-23T16:07:04.207Z,8.98
2019-05-23T16:09:37.185Z,8.88
2019-05-23T16:12:11.513Z,7.60
2019-05-23T16:14:45.294Z,7.03
2019-05-23T16:17:17.977Z,10.15
2019-05-23T16:19:50.751Z,11.78
2019-05-23T16:22:23.360Z,8.00
2019-05-23T16:24:56.109Z,11.67
2019-05-23T16:27:29.125Z,8.95
2019-05-23T16:30:02.299Z,8.00
2019-05-23T16:32:34.941Z,8.93
2019-05-23T16:35:07.665Z,8.63
2019-05-23T16:37:40.554Z,8.43
2019-05-23T16:40:13.474Z,11.53
2019-05-23T16:42:46.222Z,10.70
2019-05-23T16:45:18.917Z,10.75
2019-05-23T16:47:51.785Z,11.53
2019-05-23T16:50:24.626Z,16.42
2019-05-23T16:52:57.150Z,16.67
2019-05-23T16:55:43.970Z,14.55
2019-05-23T16:58:34.713Z,12.95
2019-05-23T17:01:24.378Z,14.55
2019-05-23T17:03:57.620Z,17.42
2019-05-23T17:06:44.446Z,17.82
2019-05-23T17:09:31.274Z,19.05
2019-05-23T17:12:03.684Z,17.80
2019-05-23T17:14:55.058Z,20.88
2019-05-23T17:18:01.232Z,17.95
2019-05-23T17:20:27.547Z,15.43
2019-05-23T17:23:02.057Z,14.18
2019-05-23T17:25:36.588Z,16.85
2019-05-23T17:28:11.712Z,17.60
2019-05-23T17:30:53.516Z,17.87
2019-05-23T17:33:26.620Z,16.57
2019-05-23T17:35:59.337Z,16.15
2019-05-23T17:38:32.578Z,16.37
2019-05-23T17:41:06.086Z,18.87
2019-05-23T17:43:39.166Z,21.23
2019-05-23T17:46:11.837Z,21.25
2019-05-23T17:48:44.838Z,20.10
2019-05-23T17:51:17.699Z,21.85
2019-05-23T17:53:50.297Z,23.85
2019-05-23T17:56:23.491Z,32.53
2019-05-23T17:58:55.885Z,29.12
2019-05-23T18:01:29.878Z,32.83
2019-05-23T18:04:03.163Z,31.30
2019-05-23T18:06:37.258Z,67.08
2019-05-23T18:09:11.814Z,71.12
2019-05-23T18:11:44.874Z,67.20
2019-05-23T18:14:17.777Z,64.82
2019-05-23T18:16:50.238Z,58.28
2019-05-23T18:19:24.110Z,57.65
2019-05-23T18:21:57.026Z,51.55
2019-05-23T18:24:29.907Z,51.73
2019-05-23T18:27:03.023Z,46.45
2019-05-23T18:29:36.453Z,40.98
2019-05-23T18:32:10.831Z,43.37
2019-05-23T18:34:43.660Z,35.35
2019-05-23T18:37:18.146Z,36.23
2019-05-23T18:39:50.745Z,33.50
2019-05-23T18:42:23.292Z,31.42
2019-05-23T18:44:56.969Z,32.63
2019-05-23T18:50:09.193Z,29.32
2019-05-23T18:52:42.029Z,31.60
2019-05-23T18:55:17.166Z,36.77
2019-05-23T18:57:50.114Z,35.25
2019-05-23T19:00:35.074Z,36.45
2019-05-23T19:03:07.756Z,34.92
2019-05-23T19:05:41.487Z,35.35
2019-05-23T19:08:13.952Z,39.55
2019-05-23T19:10:47.233Z,31.70
2019-05-23T19:13:19.715Z,32.30
2019-05-23T19:15:52.761Z,32.75
2019-05-23T19:18:26.297Z,32.48
2019-05-23T19:20:59.714Z,31.95
2019-05-23T19:23:32.904Z,34.15
2019-05-23T19:26:06.153Z,32.23
2019-05-23T19:28:41.953Z,28.87
2019-05-23T19:31:14.811Z,31.80
2019-05-23T19:33:48.327Z,38.25
2019-05-23T19:36:21.929Z,35.83
2019-05-23T19:38:54.656Z,30.37
2019-05-23T19:41:36.786Z,32.03
2019-05-23T19:44:02.716Z,30.57
2019-05-23T19:46:35.822Z,36.42
2019-05-23T19:49:11.171Z,33.10
2019-05-23T19:51:45.345Z,32.50
2019-05-23T19:54:18.349Z,36.68
2019-05-23T19:56:50.964Z,34.88
2019-05-23T19:59:24.841Z,38.45
2019-05-23T20:02:08.518Z,40.40
2019-05-23T20:04:49.059Z,42.20
2019-05-23T20:07:22.160Z,44.88
2019-05-23T20:09:57.378Z,38.70
2019-05-23T20:12:29.448Z,41.18
2019-05-23T20:15:02.026Z,39.15
2019-05-23T20:17:34.825Z,38.45
2019-05-23T20:20:08.184Z,39.00
2019-05-23T20:22:40.991Z,40.92
2019-05-23T20:25:14.076Z,39.60
2019-05-23T20:27:50.656Z,41.25
2019-05-23T20:30:45.433Z,42.23
2019-05-23T20:33:18.241Z,40.80
2019-05-23T20:35:51.318Z,43.08
2019-05-23T20:38:25.381Z,39.95
2019-05-23T20:40:58.423Z,40.73
2019-05-23T20:43:31.457Z,47.75
2019-05-23T20:46:05.155Z,58.00
2019-05-23T20:48:37.775Z,59.42
2019-05-23T20:51:10.782Z,60.90
2019-05-23T20:53:44.178Z,57.33
2019-05-23T20:56:18.650Z,57.00
2019-05-23T20:58:51.621Z,49.33
2019-05-23T21:01:25.930Z,55.23
2019-05-23T21:03:58.777Z,56.83
2019-05-23T21:06:31.854Z,59.53
2019-05-23T21:09:05.987Z,65.87
2019-05-23T21:11:38.590Z,70.57
2019-05-23T21:14:11.678Z,68.97
2019-05-23T21:16:45.092Z,60.05
2019-05-23T21:19:17.819Z,52.38
2019-05-23T21:21:50.732Z,52.67
2019-05-23T21:24:23.706Z,52.40
2019-05-23T21:26:56.185Z,57.50
2019-05-23T21:29:29.055Z,48.95
2019-05-23T21:32:02.352Z,48.75
2019-05-23T21:34:35.042Z,51.43
2019-05-23T21:37:08.239Z,49.15
2019-05-23T21:39:41.428Z,46.70
2019-05-23T21:42:14.397Z,55.40
2019-05-23T21:44:52.278Z,55.92
2019-05-23T21:47:34.340Z,59.40
2019-05-23T21:50:36.600Z,56.95
2019-05-23T21:53:10.017Z,57.43
2019-05-23T21:55:43.877Z,59.13
2019-05-23T21:58:16.682Z,68.10
2019-05-23T22:01:08.703Z,71.05
2019-05-23T22:03:55.921Z,64.50
2019-05-23T22:06:33.133Z,64.97
2019-05-23T22:09:09.368Z,63.68
2019-05-23T22:11:42.065Z,55.15
2019-05-23T22:14:15.195Z,53.40
2019-05-23T22:16:48.749Z,54.95
2019-05-23T22:19:22.262Z,59.45
2019-05-23T22:21:54.915Z,66.30
2019-05-23T22:24:27.725Z,62.03
2019-05-23T22:27:00.294Z,60.00
2019-05-23T22:29:33.197Z,62.38
2019-05-23T22:32:07.706Z,64.55
2019-05-23T22:34:45.409Z,75.12
2019-05-23T22:37:19.714Z,65.72
2019-05-23T22:39:52.411Z,66.35
2019-05-23T22:42:25.403Z,70.22
2019-05-23T22:44:57.860Z,63.00
2019-05-23T22:47:30.664Z,67.08
2019-05-23T22:50:03.426Z,63.23
2019-05-23T22:52:36.338Z,61.13
2019-05-23T22:55:09.101Z,64.60
2019-05-23T22:57:41.897Z,59.13
2019-05-23T23:00:16.218Z,59.00
2019-05-23T23:02:48.883Z,52.67
2019-05-23T23:05:21.681Z,59.10
2019-05-23T23:07:54.551Z,59.05
2019-05-23T23:10:27.244Z,53.90
2019-05-23T23:12:59.907Z,57.25
2019-05-23T23:15:32.698Z,52.75
2019-05-23T23:18:05.966Z,61.00
2019-05-23T23:20:38.758Z,50.20
2019-05-23T23:23:11.895Z,55.08
2019-05-23T23:25:45.273Z,58.70
2019-05-23T23:28:17.759Z,54.58
2019-05-23T23:30:51.331Z,57.67
2019-05-23T23:33:23.808Z,65.78
2019-05-23T23:35:56.597Z,65.12
2019-05-23T23:38:29.079Z,64.97
2019-05-23T23:41:01.868Z,61.02
2019-05-23T23:43:34.545Z,58.95
2019-05-23T23:46:26.073Z,54.05
2019-05-23T23:49:16.567Z,55.78
2019-05-23T23:52:07.170Z,55.60
2019-05-23T23:54:57.950Z,56.60
2019-05-23T23:57:49.268Z,54.67
